sensor_id;sensor_type;location;lat;lon;timestamp;P1;durP1;ratioP1;P2;durP2;ratioP2
16642;SDS011;8435;52.184;5.406;2024-03-06T00:00:15;24.20;;;21.60;;
16642;SDS011;8435;52.184;5.406;2024-03-06T00:02:42;23.17;;;20.77;;
16642;SDS011;8435;52.184;5.406;2024-03-06T00:05:15;24.50;;;22.00;;
16642;SDS011;8435;52.184;5.406;2024-03-06T00:07:43;23.67;;;21.17;;
16642;SDS011;8435;52.184;5.406;2024-03-06T00:10:10;22.60;;;20.23;;
16642;SDS011;8435;52.184;5.406;2024-03-06T00:12:37;23.93;;;21.50;;
16642;SDS011;8435;52.184;5.406;2024-03-06T00:15:04;23.37;;;20.83;;
16642;SDS011;8435;52.184;5.406;2024-03-06T00:17:31;23.77;;;21.30;;
16642;SDS011;8435;52.184;5.406;2024-03-06T00:19:58;24.27;;;21.67;;
16642;SDS011;8435;52.184;5.406;2024-03-06T00:22:25;26.10;;;22.73;;
16642;SDS011;8435;52.184;5.406;2024-03-06T00:24:53;23.57;;;21.00;;
16642;SDS011;8435;52.184;5.406;2024-03-06T00:27:20;24.30;;;21.80;;
16642;SDS011;8435;52.184;5.406;2024-03-06T00:29:46;23.20;;;20.80;;
16642;SDS011;8435;52.184;5.406;2024-03-06T00:32:13;23.50;;;21.00;;
16642;SDS011;8435;52.184;5.406;2024-03-06T00:34:40;23.50;;;20.90;;
16642;SDS011;8435;52.184;5.406;2024-03-06T00:37:07;24.17;;;21.70;;
16642;SDS011;8435;52.184;5.406;2024-03-06T00:39:34;24.27;;;21.73;;
16642;SDS011;8435;52.184;5.406;2024-03-06T00:42:03;24.60;;;21.20;;
16642;SDS011;8435;52.184;5.406;2024-03-06T00:44:30;23.97;;;21.57;;
16642;SDS011;8435;52.184;5.406;2024-03-06T00:46:56;24.33;;;21.73;;
16642;SDS011;8435;52.184;5.406;2024-03-06T00:49:23;23.37;;;20.73;;
16642;SDS011;8435;52.184;5.406;2024-03-06T00:51:51;23.03;;;20.67;;
16642;SDS011;8435;52.184;5.406;2024-03-06T00:54:17;23.67;;;21.10;;
16642;SDS011;8435;52.184;5.406;2024-03-06T00:56:44;25.57;;;22.93;;
16642;SDS011;8435;52.184;5.406;2024-03-06T00:59:12;24.27;;;21.77;;
16642;SDS011;8435;52.184;5.406;2024-03-06T01:01:39;23.77;;;21.23;;
16642;SDS011;8435;52.184;5.406;2024-03-06T01:04:06;24.93;;;22.17;;
16642;SDS011;8435;52.184;5.406;2024-03-06T01:06:33;24.37;;;21.47;;
16642;SDS011;8435;52.184;5.406;2024-03-06T01:09:00;24.53;;;21.93;;
16642;SDS011;8435;52.184;5.406;2024-03-06T01:11:26;27.63;;;24.13;;
16642;SDS011;8435;52.184;5.406;2024-03-06T01:13:53;26.47;;;23.60;;
16642;SDS011;8435;52.184;5.406;2024-03-06T01:16:22;24.97;;;22.47;;
16642;SDS011;8435;52.184;5.406;2024-03-06T01:18:48;25.70;;;22.90;;
16642;SDS011;8435;52.184;5.406;2024-03-06T01:21:15;29.03;;;24.20;;
16642;SDS011;8435;52.184;5.406;2024-03-06T01:23:43;25.70;;;23.00;;
16642;SDS011;8435;52.184;5.406;2024-03-06T01:26:09;27.20;;;23.93;;
16642;SDS011;8435;52.184;5.406;2024-03-06T01:28:36;26.50;;;23.53;;
16642;SDS011;8435;52.184;5.406;2024-03-06T01:31:03;25.53;;;22.83;;
16642;SDS011;8435;52.184;5.406;2024-03-06T01:33:32;26.90;;;23.87;;
16642;SDS011;8435;52.184;5.406;2024-03-06T01:35:59;25.57;;;22.87;;
16642;SDS011;8435;52.184;5.406;2024-03-06T01:38:26;25.57;;;22.87;;
16642;SDS011;8435;52.184;5.406;2024-03-06T01:40:53;27.53;;;24.63;;
16642;SDS011;8435;52.184;5.406;2024-03-06T01:43:20;27.30;;;24.00;;
16642;SDS011;8435;52.184;5.406;2024-03-06T01:45:48;31.40;;;25.17;;
16642;SDS011;8435;52.184;5.406;2024-03-06T01:48:15;29.30;;;24.27;;
16642;SDS011;8435;52.184;5.406;2024-03-06T01:50:43;25.97;;;23.27;;
16642;SDS011;8435;52.184;5.406;2024-03-06T01:53:10;25.93;;;23.10;;
16642;SDS011;8435;52.184;5.406;2024-03-06T01:55:40;29.87;;;24.83;;
16642;SDS011;8435;52.184;5.406;2024-03-06T01:58:08;27.77;;;23.70;;
16642;SDS011;8435;52.184;5.406;2024-03-06T02:00:35;26.87;;;23.97;;
16642;SDS011;8435;52.184;5.406;2024-03-06T02:03:02;29.57;;;25.97;;
16642;SDS011;8435;52.184;5.406;2024-03-06T02:05:29;28.30;;;25.17;;
16642;SDS011;8435;52.184;5.406;2024-03-06T02:07:58;26.63;;;23.83;;
16642;SDS011;8435;52.184;5.406;2024-03-06T02:10:25;27.37;;;24.57;;
16642;SDS011;8435;52.184;5.406;2024-03-06T02:12:53;28.73;;;25.73;;
16642;SDS011;8435;52.184;5.406;2024-03-06T02:15:19;27.33;;;23.90;;
16642;SDS011;8435;52.184;5.406;2024-03-06T02:17:46;28.77;;;24.60;;
16642;SDS011;8435;52.184;5.406;2024-03-06T02:20:13;27.90;;;24.90;;
16642;SDS011;8435;52.184;5.406;2024-03-06T02:22:42;27.57;;;24.63;;
16642;SDS011;8435;52.184;5.406;2024-03-06T02:25:09;30.50;;;26.00;;
16642;SDS011;8435;52.184;5.406;2024-03-06T02:27:37;27.93;;;24.77;;
16642;SDS011;8435;52.184;5.406;2024-03-06T02:30:04;26.97;;;23.90;;
16642;SDS011;8435;52.184;5.406;2024-03-06T02:32:31;27.97;;;24.70;;
16642;SDS011;8435;52.184;5.406;2024-03-06T02:34:58;25.40;;;22.67;;
16642;SDS011;8435;52.184;5.406;2024-03-06T02:37:27;30.27;;;24.87;;
16642;SDS011;8435;52.184;5.406;2024-03-06T02:39:55;28.83;;;25.00;;
16642;SDS011;8435;52.184;5.406;2024-03-06T02:42:22;27.43;;;24.37;;
16642;SDS011;8435;52.184;5.406;2024-03-06T02:44:49;28.27;;;25.07;;
16642;SDS011;8435;52.184;5.406;2024-03-06T02:47:16;31.40;;;26.07;;
16642;SDS011;8435;52.184;5.406;2024-03-06T02:49:42;30.23;;;25.40;;
16642;SDS011;8435;52.184;5.406;2024-03-06T02:52:10;29.97;;;25.37;;
16642;SDS011;8435;52.184;5.406;2024-03-06T02:54:36;31.47;;;25.83;;
16642;SDS011;8435;52.184;5.406;2024-03-06T02:57:05;30.20;;;26.40;;
16642;SDS011;8435;52.184;5.406;2024-03-06T02:59:32;28.00;;;24.57;;
16642;SDS011;8435;52.184;5.406;2024-03-06T03:01:58;26.63;;;23.73;;
16642;SDS011;8435;52.184;5.406;2024-03-06T03:04:26;28.67;;;23.83;;
16642;SDS011;8435;52.184;5.406;2024-03-06T03:06:53;29.93;;;25.70;;
16642;SDS011;8435;52.184;5.406;2024-03-06T03:09:19;28.77;;;24.40;;
16642;SDS011;8435;52.184;5.406;2024-03-06T03:11:46;30.10;;;25.37;;
16642;SDS011;8435;52.184;5.406;2024-03-06T03:14:14;32.23;;;27.57;;
16642;SDS011;8435;52.184;5.406;2024-03-06T03:16:41;31.27;;;26.77;;
16642;SDS011;8435;52.184;5.406;2024-03-06T03:19:08;30.87;;;26.13;;
16642;SDS011;8435;52.184;5.406;2024-03-06T03:21:35;30.50;;;26.27;;
16642;SDS011;8435;52.184;5.406;2024-03-06T03:24:02;29.43;;;24.83;;
16642;SDS011;8435;52.184;5.406;2024-03-06T03:26:29;29.43;;;25.93;;
16642;SDS011;8435;52.184;5.406;2024-03-06T03:28:56;27.80;;;24.80;;
16642;SDS011;8435;52.184;5.406;2024-03-06T03:31:25;29.17;;;25.93;;
16642;SDS011;8435;52.184;5.406;2024-03-06T03:33:52;29.33;;;24.43;;
16642;SDS011;8435;52.184;5.406;2024-03-06T03:36:19;28.53;;;25.53;;
16642;SDS011;8435;52.184;5.406;2024-03-06T03:38:45;28.33;;;24.77;;
16642;SDS011;8435;52.184;5.406;2024-03-06T03:41:12;29.93;;;24.63;;
16642;SDS011;8435;52.184;5.406;2024-03-06T03:43:41;27.23;;;23.50;;
16642;SDS011;8435;52.184;5.406;2024-03-06T03:46:08;26.73;;;23.60;;
16642;SDS011;8435;52.184;5.406;2024-03-06T03:48:36;28.40;;;25.30;;
16642;SDS011;8435;52.184;5.406;2024-03-06T03:51:03;29.10;;;26.00;;
16642;SDS011;8435;52.184;5.406;2024-03-06T03:53:31;28.97;;;25.20;;
16642;SDS011;8435;52.184;5.406;2024-03-06T03:55:58;30.23;;;25.80;;
16642;SDS011;8435;52.184;5.406;2024-03-06T03:58:25;29.40;;;24.83;;
16642;SDS011;8435;52.184;5.406;2024-03-06T04:00:52;26.77;;;22.80;;
16642;SDS011;8435;52.184;5.406;2024-03-06T04:03:20;26.97;;;22.77;;
16642;SDS011;8435;52.184;5.406;2024-03-06T04:05:48;27.97;;;23.70;;
16642;SDS011;8435;52.184;5.406;2024-03-06T04:08:15;28.10;;;24.87;;
16642;SDS011;8435;52.184;5.406;2024-03-06T04:10:42;29.10;;;24.20;;
16642;SDS011;8435;52.184;5.406;2024-03-06T04:13:10;27.30;;;24.33;;
16642;SDS011;8435;52.184;5.406;2024-03-06T04:15:37;30.90;;;25.27;;
16642;SDS011;8435;52.184;5.406;2024-03-06T04:18:04;28.53;;;24.60;;
16642;SDS011;8435;52.184;5.406;2024-03-06T04:20:31;26.83;;;23.60;;
16642;SDS011;8435;52.184;5.406;2024-03-06T04:22:59;28.30;;;23.63;;
16642;SDS011;8435;52.184;5.406;2024-03-06T04:25:25;28.20;;;25.10;;
16642;SDS011;8435;52.184;5.406;2024-03-06T04:27:52;28.07;;;24.00;;
16642;SDS011;8435;52.184;5.406;2024-03-06T04:30:19;27.47;;;24.53;;
16642;SDS011;8435;52.184;5.406;2024-03-06T04:32:46;26.60;;;23.67;;
16642;SDS011;8435;52.184;5.406;2024-03-06T04:35:13;25.77;;;23.00;;
16642;SDS011;8435;52.184;5.406;2024-03-06T04:37:41;26.23;;;23.40;;
16642;SDS011;8435;52.184;5.406;2024-03-06T04:40:10;26.57;;;22.73;;
16642;SDS011;8435;52.184;5.406;2024-03-06T04:42:40;25.27;;;22.53;;
16642;SDS011;8435;52.184;5.406;2024-03-06T04:45:09;25.73;;;22.70;;
16642;SDS011;8435;52.184;5.406;2024-03-06T04:47:37;26.70;;;23.70;;
16642;SDS011;8435;52.184;5.406;2024-03-06T04:50:07;27.07;;;23.67;;
16642;SDS011;8435;52.184;5.406;2024-03-06T04:52:34;29.80;;;24.07;;
16642;SDS011;8435;52.184;5.406;2024-03-06T04:55:01;26.53;;;23.67;;
16642;SDS011;8435;52.184;5.406;2024-03-06T04:57:30;28.40;;;24.63;;
16642;SDS011;8435;52.184;5.406;2024-03-06T04:59:57;28.83;;;24.13;;
16642;SDS011;8435;52.184;5.406;2024-03-06T05:02:23;25.73;;;22.93;;
16642;SDS011;8435;52.184;5.406;2024-03-06T05:04:51;25.87;;;23.03;;
16642;SDS011;8435;52.184;5.406;2024-03-06T05:07:17;25.23;;;22.23;;
16642;SDS011;8435;52.184;5.406;2024-03-06T05:09:44;26.90;;;24.00;;
16642;SDS011;8435;52.184;5.406;2024-03-06T05:12:11;26.17;;;23.33;;
16642;SDS011;8435;52.184;5.406;2024-03-06T05:14:39;27.40;;;23.53;;
16642;SDS011;8435;52.184;5.406;2024-03-06T05:17:06;26.00;;;23.30;;
16642;SDS011;8435;52.184;5.406;2024-03-06T05:19:35;27.87;;;23.90;;
16642;SDS011;8435;52.184;5.406;2024-03-06T05:22:02;28.17;;;23.37;;
16642;SDS011;8435;52.184;5.406;2024-03-06T05:24:30;25.17;;;22.47;;
16642;SDS011;8435;52.184;5.406;2024-03-06T05:26:57;25.50;;;22.43;;
16642;SDS011;8435;52.184;5.406;2024-03-06T05:29:24;27.07;;;23.40;;
16642;SDS011;8435;52.184;5.406;2024-03-06T05:31:52;27.13;;;24.10;;
16642;SDS011;8435;52.184;5.406;2024-03-06T05:34:20;27.97;;;23.83;;
16642;SDS011;8435;52.184;5.406;2024-03-06T05:36:47;26.47;;;23.60;;
16642;SDS011;8435;52.184;5.406;2024-03-06T05:39:14;27.57;;;24.57;;
16642;SDS011;8435;52.184;5.406;2024-03-06T05:41:42;28.87;;;25.23;;
16642;SDS011;8435;52.184;5.406;2024-03-06T05:44:09;28.50;;;23.60;;
16642;SDS011;8435;52.184;5.406;2024-03-06T05:46:37;28.90;;;25.00;;
16642;SDS011;8435;52.184;5.406;2024-03-06T05:49:06;29.53;;;25.40;;
16642;SDS011;8435;52.184;5.406;2024-03-06T05:51:33;28.40;;;24.27;;
16642;SDS011;8435;52.184;5.406;2024-03-06T05:54:00;28.70;;;25.27;;
16642;SDS011;8435;52.184;5.406;2024-03-06T05:56:26;31.53;;;26.40;;
16642;SDS011;8435;52.184;5.406;2024-03-06T05:58:56;28.70;;;24.97;;
16642;SDS011;8435;52.184;5.406;2024-03-06T06:01:23;28.10;;;24.37;;
16642;SDS011;8435;52.184;5.406;2024-03-06T06:03:50;29.93;;;24.53;;
16642;SDS011;8435;52.184;5.406;2024-03-06T06:06:18;27.70;;;23.93;;
16642;SDS011;8435;52.184;5.406;2024-03-06T06:08:45;27.17;;;23.03;;
16642;SDS011;8435;52.184;5.406;2024-03-06T06:11:12;29.07;;;24.70;;
16642;SDS011;8435;52.184;5.406;2024-03-06T06:13:39;24.13;;;21.57;;
16642;SDS011;8435;52.184;5.406;2024-03-06T06:16:06;23.90;;;21.23;;
16642;SDS011;8435;52.184;5.406;2024-03-06T06:18:32;24.20;;;21.67;;
16642;SDS011;8435;52.184;5.406;2024-03-06T06:20:59;25.27;;;22.57;;
16642;SDS011;8435;52.184;5.406;2024-03-06T06:23:27;25.70;;;22.13;;
16642;SDS011;8435;52.184;5.406;2024-03-06T06:25:54;26.97;;;24.07;;
16642;SDS011;8435;52.184;5.406;2024-03-06T06:28:21;26.07;;;22.37;;
16642;SDS011;8435;52.184;5.406;2024-03-06T06:30:49;26.60;;;23.67;;
16642;SDS011;8435;52.184;5.406;2024-03-06T06:33:17;27.00;;;22.73;;
16642;SDS011;8435;52.184;5.406;2024-03-06T06:35:44;25.93;;;23.13;;
16642;SDS011;8435;52.184;5.406;2024-03-06T06:38:11;26.23;;;22.07;;
16642;SDS011;8435;52.184;5.406;2024-03-06T06:40:39;24.53;;;21.63;;
16642;SDS011;8435;52.184;5.406;2024-03-06T06:43:06;27.47;;;21.10;;
16642;SDS011;8435;52.184;5.406;2024-03-06T06:45:33;23.97;;;20.40;;
16642;SDS011;8435;52.184;5.406;2024-03-06T06:48:00;23.87;;;19.77;;
16642;SDS011;8435;52.184;5.406;2024-03-06T06:50:27;23.77;;;21.20;;
16642;SDS011;8435;52.184;5.406;2024-03-06T06:52:55;25.90;;;21.43;;
16642;SDS011;8435;52.184;5.406;2024-03-06T06:55:24;22.30;;;20.00;;
16642;SDS011;8435;52.184;5.406;2024-03-06T06:57:53;22.07;;;19.50;;
16642;SDS011;8435;52.184;5.406;2024-03-06T07:00:20;23.50;;;20.57;;
16642;SDS011;8435;52.184;5.406;2024-03-06T07:02:48;23.73;;;20.53;;
16642;SDS011;8435;52.184;5.406;2024-03-06T07:05:15;23.80;;;20.67;;
16642;SDS011;8435;52.184;5.406;2024-03-06T07:07:43;26.40;;;21.30;;
16642;SDS011;8435;52.184;5.406;2024-03-06T07:10:10;25.57;;;22.30;;
16642;SDS011;8435;52.184;5.406;2024-03-06T07:12:36;26.60;;;21.90;;
16642;SDS011;8435;52.184;5.406;2024-03-06T07:15:05;23.97;;;21.33;;
16642;SDS011;8435;52.184;5.406;2024-03-06T07:17:32;27.93;;;23.33;;
16642;SDS011;8435;52.184;5.406;2024-03-06T07:19:59;26.53;;;23.17;;
16642;SDS011;8435;52.184;5.406;2024-03-06T07:22:26;27.33;;;22.93;;
16642;SDS011;8435;52.184;5.406;2024-03-06T07:24:53;27.10;;;24.07;;
16642;SDS011;8435;52.184;5.406;2024-03-06T07:27:19;29.57;;;24.50;;
16642;SDS011;8435;52.184;5.406;2024-03-06T07:29:46;25.83;;;22.50;;
16642;SDS011;8435;52.184;5.406;2024-03-06T07:32:14;25.63;;;21.57;;
16642;SDS011;8435;52.184;5.406;2024-03-06T07:34:41;26.43;;;22.50;;
16642;SDS011;8435;52.184;5.406;2024-03-06T07:37:08;24.50;;;21.93;;
16642;SDS011;8435;52.184;5.406;2024-03-06T07:39:35;25.20;;;22.40;;
16642;SDS011;8435;52.184;5.406;2024-03-06T07:42:01;28.33;;;24.97;;
16642;SDS011;8435;52.184;5.406;2024-03-06T07:44:29;26.43;;;23.53;;
16642;SDS011;8435;52.184;5.406;2024-03-06T07:46:56;29.47;;;23.17;;
16642;SDS011;8435;52.184;5.406;2024-03-06T07:49:24;29.73;;;23.40;;
16642;SDS011;8435;52.184;5.406;2024-03-06T07:51:51;27.13;;;22.03;;
16642;SDS011;8435;52.184;5.406;2024-03-06T07:54:18;43.50;;;23.50;;
16642;SDS011;8435;52.184;5.406;2024-03-06T07:56:45;33.97;;;23.87;;
16642;SDS011;8435;52.184;5.406;2024-03-06T07:59:13;30.50;;;23.07;;
16642;SDS011;8435;52.184;5.406;2024-03-06T08:01:41;29.20;;;23.23;;
16642;SDS011;8435;52.184;5.406;2024-03-06T08:04:08;31.70;;;24.10;;
16642;SDS011;8435;52.184;5.406;2024-03-06T08:06:36;33.27;;;24.67;;
16642;SDS011;8435;52.184;5.406;2024-03-06T08:09:04;29.87;;;23.60;;
16642;SDS011;8435;52.184;5.406;2024-03-06T08:11:31;37.53;;;23.90;;
16642;SDS011;8435;52.184;5.406;2024-03-06T08:13:59;33.20;;;25.17;;
16642;SDS011;8435;52.184;5.406;2024-03-06T08:16:27;33.27;;;23.43;;
16642;SDS011;8435;52.184;5.406;2024-03-06T08:18:55;29.60;;;23.40;;
16642;SDS011;8435;52.184;5.406;2024-03-06T08:21:22;26.17;;;22.83;;
16642;SDS011;8435;52.184;5.406;2024-03-06T08:23:50;29.40;;;23.53;;
16642;SDS011;8435;52.184;5.406;2024-03-06T08:26:26;33.23;;;24.27;;
16642;SDS011;8435;52.184;5.406;2024-03-06T08:28:54;28.63;;;23.60;;
16642;SDS011;8435;52.184;5.406;2024-03-06T08:31:21;35.77;;;23.17;;
16642;SDS011;8435;52.184;5.406;2024-03-06T08:33:48;35.53;;;25.07;;
16642;SDS011;8435;52.184;5.406;2024-03-06T08:36:14;34.57;;;24.50;;
16642;SDS011;8435;52.184;5.406;2024-03-06T08:38:41;29.13;;;23.93;;
16642;SDS011;8435;52.184;5.406;2024-03-06T08:41:09;33.90;;;24.93;;
16642;SDS011;8435;52.184;5.406;2024-03-06T08:43:37;40.47;;;26.70;;
16642;SDS011;8435;52.184;5.406;2024-03-06T08:46:04;39.00;;;26.67;;
16642;SDS011;8435;52.184;5.406;2024-03-06T08:48:31;37.83;;;26.13;;
16642;SDS011;8435;52.184;5.406;2024-03-06T08:50:57;31.03;;;25.27;;
16642;SDS011;8435;52.184;5.406;2024-03-06T08:53:24;34.83;;;27.10;;
16642;SDS011;8435;52.184;5.406;2024-03-06T08:55:51;29.30;;;23.83;;
16642;SDS011;8435;52.184;5.406;2024-03-06T08:58:19;34.80;;;26.50;;
16642;SDS011;8435;52.184;5.406;2024-03-06T09:00:46;32.00;;;25.93;;
16642;SDS011;8435;52.184;5.406;2024-03-06T09:03:13;32.13;;;26.40;;
16642;SDS011;8435;52.184;5.406;2024-03-06T09:05:40;34.47;;;26.17;;
16642;SDS011;8435;52.184;5.406;2024-03-06T09:08:07;34.00;;;26.40;;
16642;SDS011;8435;52.184;5.406;2024-03-06T09:10:34;30.20;;;24.33;;
16642;SDS011;8435;52.184;5.406;2024-03-06T09:13:01;32.60;;;25.20;;
16642;SDS011;8435;52.184;5.406;2024-03-06T09:15:29;32.10;;;25.10;;
16642;SDS011;8435;52.184;5.406;2024-03-06T09:17:56;32.70;;;25.60;;
16642;SDS011;8435;52.184;5.406;2024-03-06T09:20:23;36.33;;;26.13;;
16642;SDS011;8435;52.184;5.406;2024-03-06T09:22:51;33.90;;;25.00;;
16642;SDS011;8435;52.184;5.406;2024-03-06T09:25:19;34.00;;;27.27;;
16642;SDS011;8435;52.184;5.406;2024-03-06T09:27:46;35.13;;;26.93;;
16642;SDS011;8435;52.184;5.406;2024-03-06T09:30:13;32.97;;;26.03;;
16642;SDS011;8435;52.184;5.406;2024-03-06T09:32:42;33.10;;;26.77;;
16642;SDS011;8435;52.184;5.406;2024-03-06T09:35:09;36.03;;;28.73;;
16642;SDS011;8435;52.184;5.406;2024-03-06T09:37:36;34.13;;;27.20;;
16642;SDS011;8435;52.184;5.406;2024-03-06T09:40:03;34.77;;;28.63;;
16642;SDS011;8435;52.184;5.406;2024-03-06T09:42:32;33.07;;;27.77;;
16642;SDS011;8435;52.184;5.406;2024-03-06T09:44:59;35.07;;;27.47;;
16642;SDS011;8435;52.184;5.406;2024-03-06T09:47:27;37.40;;;28.80;;
16642;SDS011;8435;52.184;5.406;2024-03-06T09:49:59;38.03;;;28.70;;
16642;SDS011;8435;52.184;5.406;2024-03-06T09:52:31;35.33;;;27.83;;
16642;SDS011;8435;52.184;5.406;2024-03-06T09:54:59;35.77;;;29.03;;
16642;SDS011;8435;52.184;5.406;2024-03-06T09:57:27;36.87;;;29.17;;
16642;SDS011;8435;52.184;5.406;2024-03-06T09:59:54;34.47;;;28.07;;
16642;SDS011;8435;52.184;5.406;2024-03-06T10:02:26;36.07;;;29.27;;
16642;SDS011;8435;52.184;5.406;2024-03-06T10:05:00;34.63;;;28.07;;
16642;SDS011;8435;52.184;5.406;2024-03-06T10:07:28;37.63;;;30.17;;
16642;SDS011;8435;52.184;5.406;2024-03-06T10:09:55;37.83;;;30.53;;
16642;SDS011;8435;52.184;5.406;2024-03-06T10:12:22;36.13;;;29.57;;
16642;SDS011;8435;52.184;5.406;2024-03-06T10:14:49;40.27;;;31.70;;
16642;SDS011;8435;52.184;5.406;2024-03-06T10:17:18;39.43;;;32.50;;
16642;SDS011;8435;52.184;5.406;2024-03-06T10:19:47;35.60;;;29.27;;
16642;SDS011;8435;52.184;5.406;2024-03-06T10:22:18;42.40;;;32.00;;
16642;SDS011;8435;52.184;5.406;2024-03-06T10:24:45;40.17;;;32.30;;
16642;SDS011;8435;52.184;5.406;2024-03-06T10:27:14;42.67;;;32.93;;
16642;SDS011;8435;52.184;5.406;2024-03-06T10:29:42;40.80;;;32.53;;
16642;SDS011;8435;52.184;5.406;2024-03-06T10:32:09;40.47;;;32.90;;
16642;SDS011;8435;52.184;5.406;2024-03-06T10:34:37;39.63;;;32.90;;
16642;SDS011;8435;52.184;5.406;2024-03-06T10:37:05;39.87;;;33.53;;
16642;SDS011;8435;52.184;5.406;2024-03-06T10:39:34;39.93;;;33.87;;
16642;SDS011;8435;52.184;5.406;2024-03-06T10:42:07;40.30;;;33.33;;
16642;SDS011;8435;52.184;5.406;2024-03-06T10:44:34;39.20;;;31.80;;
16642;SDS011;8435;52.184;5.406;2024-03-06T10:47:02;38.60;;;32.70;;
16642;SDS011;8435;52.184;5.406;2024-03-06T10:49:30;38.60;;;31.97;;
16642;SDS011;8435;52.184;5.406;2024-03-06T10:51:59;36.97;;;31.57;;
16642;SDS011;8435;52.184;5.406;2024-03-06T10:54:28;37.10;;;31.60;;
16642;SDS011;8435;52.184;5.406;2024-03-06T10:56:57;36.67;;;31.93;;
16642;SDS011;8435;52.184;5.406;2024-03-06T10:59:25;36.93;;;30.70;;
16642;SDS011;8435;52.184;5.406;2024-03-06T11:01:56;35.43;;;30.17;;
16642;SDS011;8435;52.184;5.406;2024-03-06T11:04:25;35.53;;;29.83;;
16642;SDS011;8435;52.184;5.406;2024-03-06T11:06:53;33.83;;;28.90;;
16642;SDS011;8435;52.184;5.406;2024-03-06T11:09:21;34.53;;;29.57;;
16642;SDS011;8435;52.184;5.406;2024-03-06T11:11:48;34.80;;;29.57;;
16642;SDS011;8435;52.184;5.406;2024-03-06T11:14:17;33.00;;;28.50;;
16642;SDS011;8435;52.184;5.406;2024-03-06T11:16:56;34.13;;;29.87;;
16642;SDS011;8435;52.184;5.406;2024-03-06T11:19:30;32.17;;;28.50;;
16642;SDS011;8435;52.184;5.406;2024-03-06T11:21:57;31.67;;;27.87;;
16642;SDS011;8435;52.184;5.406;2024-03-06T11:24:31;33.37;;;28.87;;
16642;SDS011;8435;52.184;5.406;2024-03-06T11:26:59;29.77;;;26.57;;
16642;SDS011;8435;52.184;5.406;2024-03-06T11:29:29;31.60;;;27.70;;
16642;SDS011;8435;52.184;5.406;2024-03-06T11:32:16;30.10;;;26.90;;
16642;SDS011;8435;52.184;5.406;2024-03-06T11:34:44;29.73;;;26.60;;
16642;SDS011;8435;52.184;5.406;2024-03-06T11:37:10;28.87;;;25.40;;
16642;SDS011;8435;52.184;5.406;2024-03-06T11:39:39;28.27;;;24.17;;
16642;SDS011;8435;52.184;5.406;2024-03-06T11:42:08;27.60;;;24.60;;
16642;SDS011;8435;52.184;5.406;2024-03-06T11:44:36;26.73;;;23.03;;
16642;SDS011;8435;52.184;5.406;2024-03-06T11:47:04;25.90;;;23.10;;
16642;SDS011;8435;52.184;5.406;2024-03-06T11:49:33;25.13;;;22.47;;
16642;SDS011;8435;52.184;5.406;2024-03-06T11:52:03;27.10;;;23.90;;
16642;SDS011;8435;52.184;5.406;2024-03-06T11:54:33;26.67;;;23.57;;
16642;SDS011;8435;52.184;5.406;2024-03-06T11:57:00;25.57;;;22.87;;
16642;SDS011;8435;52.184;5.406;2024-03-06T11:59:28;25.50;;;22.23;;
16642;SDS011;8435;52.184;5.406;2024-03-06T12:01:58;24.87;;;22.27;;
16642;SDS011;8435;52.184;5.406;2024-03-06T12:04:27;23.37;;;20.73;;
16642;SDS011;8435;52.184;5.406;2024-03-06T12:06:56;23.33;;;20.90;;
16642;SDS011;8435;52.184;5.406;2024-03-06T12:09:23;24.93;;;22.13;;
16642;SDS011;8435;52.184;5.406;2024-03-06T12:11:50;23.40;;;20.90;;
16642;SDS011;8435;52.184;5.406;2024-03-06T12:14:17;22.67;;;20.27;;
16642;SDS011;8435;52.184;5.406;2024-03-06T12:16:54;22.33;;;20.03;;
16642;SDS011;8435;52.184;5.406;2024-03-06T12:19:24;23.93;;;21.43;;
16642;SDS011;8435;52.184;5.406;2024-03-06T12:21:52;22.77;;;20.47;;
16642;SDS011;8435;52.184;5.406;2024-03-06T12:24:19;21.30;;;19.13;;
16642;SDS011;8435;52.184;5.406;2024-03-06T12:26:46;20.70;;;18.43;;
16642;SDS011;8435;52.184;5.406;2024-03-06T12:29:16;19.60;;;17.63;;
16642;SDS011;8435;52.184;5.406;2024-03-06T12:31:45;18.70;;;16.80;;
16642;SDS011;8435;52.184;5.406;2024-03-06T12:34:13;20.03;;;17.87;;
16642;SDS011;8435;52.184;5.406;2024-03-06T12:36:42;18.90;;;16.30;;
16642;SDS011;8435;52.184;5.406;2024-03-06T12:39:08;17.57;;;15.73;;
16642;SDS011;8435;52.184;5.406;2024-03-06T12:41:38;19.10;;;16.10;;
16642;SDS011;8435;52.184;5.406;2024-03-06T12:44:05;15.17;;;13.67;;
16642;SDS011;8435;52.184;5.406;2024-03-06T12:46:32;14.70;;;13.30;;
16642;SDS011;8435;52.184;5.406;2024-03-06T12:48:59;14.47;;;13.03;;
16642;SDS011;8435;52.184;5.406;2024-03-06T12:51:26;14.07;;;12.67;;
16642;SDS011;8435;52.184;5.406;2024-03-06T12:53:54;14.30;;;12.97;;
16642;SDS011;8435;52.184;5.406;2024-03-06T12:56:21;15.10;;;13.57;;
16642;SDS011;8435;52.184;5.406;2024-03-06T12:58:50;13.53;;;12.13;;
16642;SDS011;8435;52.184;5.406;2024-03-06T13:01:17;12.00;;;10.90;;
16642;SDS011;8435;52.184;5.406;2024-03-06T13:03:45;12.60;;;10.50;;
16642;SDS011;8435;52.184;5.406;2024-03-06T13:06:12;11.47;;;10.37;;
16642;SDS011;8435;52.184;5.406;2024-03-06T13:08:39;10.43;;;9.50;;
16642;SDS011;8435;52.184;5.406;2024-03-06T13:11:07;10.23;;;9.13;;
16642;SDS011;8435;52.184;5.406;2024-03-06T13:13:34;10.57;;;9.47;;
16642;SDS011;8435;52.184;5.406;2024-03-06T13:16:01;10.73;;;9.53;;
16642;SDS011;8435;52.184;5.406;2024-03-06T13:18:28;10.43;;;9.33;;
16642;SDS011;8435;52.184;5.406;2024-03-06T13:20:55;10.40;;;9.23;;
16642;SDS011;8435;52.184;5.406;2024-03-06T13:23:23;9.37;;;8.30;;
16642;SDS011;8435;52.184;5.406;2024-03-06T13:25:50;10.10;;;9.20;;
16642;SDS011;8435;52.184;5.406;2024-03-06T13:28:18;8.40;;;7.70;;
16642;SDS011;8435;52.184;5.406;2024-03-06T13:30:46;9.60;;;8.57;;
16642;SDS011;8435;52.184;5.406;2024-03-06T13:33:13;8.90;;;8.10;;
16642;SDS011;8435;52.184;5.406;2024-03-06T13:35:39;9.23;;;8.33;;
16642;SDS011;8435;52.184;5.406;2024-03-06T13:38:07;9.10;;;8.20;;
16642;SDS011;8435;52.184;5.406;2024-03-06T13:40:34;9.47;;;8.47;;
16642;SDS011;8435;52.184;5.406;2024-03-06T13:43:01;8.00;;;7.13;;
16642;SDS011;8435;52.184;5.406;2024-03-06T13:45:29;8.50;;;7.70;;
16642;SDS011;8435;52.184;5.406;2024-03-06T13:47:56;9.27;;;8.37;;
16642;SDS011;8435;52.184;5.406;2024-03-06T13:50:23;10.17;;;9.17;;
16642;SDS011;8435;52.184;5.406;2024-03-06T13:52:50;8.47;;;7.60;;
16642;SDS011;8435;52.184;5.406;2024-03-06T13:55:17;7.27;;;6.63;;
16642;SDS011;8435;52.184;5.406;2024-03-06T13:57:44;5.20;;;4.70;;
16642;SDS011;8435;52.184;5.406;2024-03-06T14:00:12;4.97;;;4.53;;
16642;SDS011;8435;52.184;5.406;2024-03-06T14:02:43;4.23;;;3.83;;
16642;SDS011;8435;52.184;5.406;2024-03-06T14:05:12;3.87;;;3.57;;
16642;SDS011;8435;52.184;5.406;2024-03-06T14:07:39;5.23;;;3.63;;
16642;SDS011;8435;52.184;5.406;2024-03-06T14:10:06;4.27;;;3.97;;
16642;SDS011;8435;52.184;5.406;2024-03-06T14:12:34;5.80;;;5.00;;
16642;SDS011;8435;52.184;5.406;2024-03-06T14:15:02;7.77;;;6.87;;
16642;SDS011;8435;52.184;5.406;2024-03-06T14:17:30;8.70;;;7.17;;
16642;SDS011;8435;52.184;5.406;2024-03-06T14:19:58;8.63;;;7.73;;
16642;SDS011;8435;52.184;5.406;2024-03-06T14:22:25;9.13;;;8.23;;
16642;SDS011;8435;52.184;5.406;2024-03-06T14:24:52;8.10;;;7.30;;
16642;SDS011;8435;52.184;5.406;2024-03-06T14:27:19;8.03;;;7.23;;
16642;SDS011;8435;52.184;5.406;2024-03-06T14:29:46;7.83;;;7.13;;
16642;SDS011;8435;52.184;5.406;2024-03-06T14:32:14;8.37;;;7.57;;
16642;SDS011;8435;52.184;5.406;2024-03-06T14:34:41;8.00;;;7.20;;
16642;SDS011;8435;52.184;5.406;2024-03-06T14:37:10;9.13;;;8.23;;